Time;durP1;ratioP1;P1;durP2;ratioP2;P2;SDS_P1;SDS_P2;PMS_P1;PMS_P2;Temp;Humidity;BMP_temperature;BMP_pressure;BME280_temperature;BME280_humidity;BME280_pressure;Samples;Min_cycle;Max_cycle;Signal;HPM_P1;HPM_P2
2022/06/16 00:01:34;;;;;;;4.80;4.18;;;;;;;13.20;100.00;91386.28;5034160;28;20095;-69
2022/06/16 00:04:00;;;;;;;6.25;3.90;;;;;;;13.21;100.00;91387.84;5034053;28;20539;-69
2022/06/16 00:06:26;;;;;;;5.55;3.90;;;;;;;13.20;100.00;91391.59;5034072;28;20068;-69
2022/06/16 00:08:51;;;;;;;5.97;4.40;;;;;;;13.28;100.00;91385.50;5030071;28;20045;-69
2022/06/16 00:11:17;;;;;;;10.65;8.90;;;;;;;13.33;100.00;91374.66;5014105;28;20041;-69
2022/06/16 00:13:43;;;;;;;6.57;5.10;;;;;;;13.42;100.00;91391.50;5014003;28;20435;-70
2022/06/16 00:16:10;;;;;;;5.82;4.72;;;;;;;13.25;100.00;91378.09;5014048;28;20052;-69
2022/06/16 00:18:36;;;;;;;5.75;5.13;;;;;;;13.26;100.00;91381.56;5014045;28;20045;-70
2022/06/16 00:21:03;;;;;;;8.73;5.15;;;;;;;13.16;100.00;91377.28;5014039;28;20042;-70
2022/06/16 00:23:29;;;;;;;6.80;4.75;;;;;;;13.21;100.00;91382.50;5014007;28;20519;-69
2022/06/16 00:25:55;;;;;;;7.30;6.13;;;;;;;13.35;100.00;91374.34;5013826;28;20053;-69
2022/06/16 00:28:21;;;;;;;9.65;4.70;;;;;;;13.41;100.00;91379.22;5013893;28;20515;-69
2022/06/16 00:30:46;;;;;;;4.75;4.25;;;;;;;13.49;100.00;91385.66;5013804;28;20045;-69
2022/06/16 00:33:12;;;;;;;7.15;5.90;;;;;;;13.53;100.00;91377.78;5013726;28;20492;-69
2022/06/16 00:35:37;;;;;;;7.55;5.50;;;;;;;13.57;100.00;91381.41;5013548;28;20377;-69
2022/06/16 00:38:03;;;;;;;7.05;5.40;;;;;;;13.73;100.00;91372.63;5013698;28;20030;-69
2022/06/16 00:40:29;;;;;;;5.93;4.78;;;;;;;13.77;100.00;91362.84;5013503;28;20034;-69
2022/06/16 00:42:54;;;;;;;7.15;5.03;;;;;;;13.73;100.00;91374.50;5013532;28;20049;-69
2022/06/16 00:45:41;;;;;;;7.88;4.72;;;;;;;13.73;100.00;91369.16;5013432;28;20127;-69
2022/06/16 00:48:08;;;;;;;9.93;4.68;;;;;;;13.61;100.00;91361.75;5013495;28;20037;-69
2022/06/16 00:50:33;;;;;;;5.00;4.35;;;;;;;13.49;100.00;91361.59;5013395;28;20096;-69
2022/06/16 00:52:59;;;;;;;5.53;4.63;;;;;;;13.42;100.00;91358.63;5013261;28;20420;-69
2022/06/16 00:55:26;;;;;;;6.72;5.43;;;;;;;13.41;100.00;91362.38;5013254;28;20562;-69
2022/06/16 00:57:53;;;;;;;12.27;8.88;;;;;;;13.25;100.00;91361.28;5013327;28;20033;-69
2022/06/16 01:00:44;;;;;;;6.47;5.43;;;;;;;12.99;100.00;91361.22;5013253;28;20026;-69
2022/06/16 01:03:10;;;;;;;7.88;4.47;;;;;;;12.79;100.00;91358.06;5013217;28;20444;-69
2022/06/16 01:05:35;;;;;;;7.70;4.22;;;;;;;12.70;100.00;91351.91;5013047;28;20026;-70
2022/06/16 01:08:04;;;;;;;5.50;4.10;;;;;;;12.60;100.00;91352.97;5013401;28;20033;-70
2022/06/16 01:10:40;;;;;;;5.40;3.78;;;;;;;12.51;100.00;91351.38;5012846;28;20049;-70
2022/06/16 01:16:18;;;;;;;6.68;4.43;;;;;;;12.42;100.00;91338.00;5012885;28;20041;-70
2022/06/16 01:18:58;;;;;;;5.00;4.10;;;;;;;12.47;100.00;91339.75;5012919;28;20034;-70
2022/06/16 01:21:51;;;;;;;6.88;4.30;;;;;;;12.62;100.00;91344.66;5012889;28;20026;-70
2022/06/16 01:24:31;;;;;;;5.82;4.28;;;;;;;12.83;100.00;91328.84;5012721;28;20026;-70
2022/06/16 01:27:11;;;;;;;7.18;6.10;;;;;;;12.96;100.00;91335.94;5012717;28;20416;-69
2022/06/16 01:29:45;;;;;;;8.40;6.50;;;;;;;13.07;100.00;91333.72;5012898;28;20026;-70
2022/06/16 01:32:32;;;;;;;7.65;5.65;;;;;;;13.15;100.00;91338.31;5012641;28;20029;-69
2022/06/16 01:35:17;;;;;;;6.45;5.22;;;;;;;13.17;100.00;91336.09;5012517;28;20069;-70
2022/06/16 01:37:48;;;;;;;5.95;4.47;;;;;;;13.11;100.00;91337.38;5012546;28;20030;-69
2022/06/16 01:40:33;;;;;;;7.10;4.25;;;;;;;13.06;100.00;91335.63;5012513;28;20112;-69
2022/06/16 01:43:30;;;;;;;4.03;3.28;;;;;;;13.17;100.00;91330.75;5012422;28;20064;-69
2022/06/16 01:46:16;;;;;;;4.32;3.60;;;;;;;13.13;100.00;91330.63;5009116;28;20048;-69
2022/06/16 01:48:46;;;;;;;4.07;3.67;;;;;;;13.18;100.00;91327.03;5012662;28;20030;-69
2022/06/16 01:51:23;;;;;;;5.85;3.47;;;;;;;13.17;100.00;91322.75;5012381;28;20026;-69
2022/06/16 01:54:08;;;;;;;4.47;3.47;;;;;;;13.21;100.00;91329.06;5011722;28;20041;-69
2022/06/16 01:56:48;;;;;;;3.75;2.90;;;;;;;13.21;100.00;91321.03;5000544;28;20045;-70
2022/06/16 01:59:39;;;;;;;6.38;3.50;;;;;;;13.02;100.00;91323.22;5012207;28;20044;-69
2022/06/16 02:02:10;;;;;;;12.93;3.40;;;;;;;12.83;100.00;91332.31;5011910;28;20026;-69
2022/06/16 02:04:56;;;;;;;5.15;3.40;;;;;;;12.61;100.00;91321.72;5011993;28;20084;-69
2022/06/16 02:07:31;;;;;;;4.30;3.05;;;;;;;12.74;100.00;91331.50;5012053;28;20030;-70
2022/06/16 02:10:01;;;;;;;5.65;4.13;;;;;;;12.79;100.00;91336.69;5011908;28;20389;-69
2022/06/16 02:15:26;;;;;;;5.20;3.55;;;;;;;12.52;100.00;91318.25;5012114;28;20044;-70
2022/06/16 02:17:55;;;;;;;4.85;3.40;;;;;;;12.58;100.00;91325.03;5011802;28;20105;-69
2022/06/16 02:20:20;;;;;;;3.92;3.15;;;;;;;12.43;100.00;91331.56;5011741;28;20026;-69
2022/06/16 02:22:46;;;;;;;5.88;3.95;;;;;;;12.36;100.00;91325.91;5011716;28;20176;-69
2022/06/16 02:25:11;;;;;;;6.97;4.40;;;;;;;12.46;100.00;91322.94;5011708;28;20037;-68
2022/06/16 02:27:37;;;;;;;5.93;4.05;;;;;;;12.60;100.00;91330.84;5011703;28;20026;-69
2022/06/16 02:30:03;;;;;;;5.80;5.20;;;;;;;12.55;100.00;91330.97;5011593;28;20037;-69
2022/06/16 02:32:39;;;;;;;4.70;3.83;;;;;;;12.39;100.00;91329.84;5004741;28;20503;-69
2022/06/16 02:35:31;;;;;;;5.53;4.50;;;;;;;12.22;100.00;91323.34;4991729;28;20045;-69
2022/06/16 02:38:14;;;;;;;5.88;4.75;;;;;;;12.26;100.00;91326.19;4991812;28;20156;-70
2022/06/16 02:40:49;;;;;;;5.70;4.32;;;;;;;12.32;100.00;91324.97;4991872;28;20489;-69
2022/06/16 02:43:45;;;;;;;6.03;4.90;;;;;;;12.46;100.00;91330.16;4991733;28;20026;-69
2022/06/16 02:46:51;;;;;;;6.20;4.13;;;;;;;12.63;100.00;91338.25;4991796;28;20030;-69
2022/06/16 02:49:51;;;;;;;5.70;4.13;;;;;;;12.78;100.00;91331.66;4991676;28;20431;-69
2022/06/16 02:52:28;;;;;;;7.68;4.55;;;;;;;12.80;100.00;91332.94;4991600;28;20031;-69
2022/06/16 02:55:08;;;;;;;11.80;5.05;;;;;;;12.93;100.00;91341.88;4991760;28;20125;-69
2022/06/16 02:57:47;;;;;;;5.43;4.38;;;;;;;12.93;100.00;91341.09;4991641;28;20034;-68
2022/06/16 03:00:17;;;;;;;6.20;4.68;;;;;;;12.90;100.00;91343.31;4991633;28;20467;-69
2022/06/16 03:02:43;;;;;;;5.97;4.57;;;;;;;12.94;100.00;91351.50;4990976;28;20046;-69
2022/06/16 03:05:12;;;;;;;5.38;4.07;;;;;;;12.92;100.00;91345.66;4990524;28;20022;-70
2022/06/16 03:07:38;;;;;;;5.50;3.75;;;;;;;12.99;100.00;91351.34;4991408;28;20485;-69
2022/06/16 03:10:05;;;;;;;5.80;4.32;;;;;;;13.01;100.00;91351.81;5004583;28;20538;-69
2022/06/16 03:12:31;;;;;;;5.68;3.85;;;;;;;13.14;100.00;91353.56;5010882;28;20034;-69
2022/06/16 03:14:57;;;;;;;6.55;4.15;;;;;;;13.16;100.00;91351.34;5011301;28;20041;-70
2022/06/16 03:17:22;;;;;;;5.07;3.63;;;;;;;13.16;100.00;91347.91;5011095;28;20112;-69
2022/06/16 03:19:48;;;;;;;5.43;3.25;;;;;;;13.09;100.00;91351.00;5011088;28;20025;-69
2022/06/16 03:22:13;;;;;;;9.13;4.72;;;;;;;13.02;100.00;91350.72;5011002;28;20052;-69
2022/06/16 03:24:39;;;;;;;4.55;3.85;;;;;;;13.06;100.00;91350.84;5010954;28;20518;-69
2022/06/16 03:27:06;;;;;;;5.80;4.03;;;;;;;13.09;100.00;91350.22;4993325;28;20495;-70
2022/06/16 03:29:32;;;;;;;4.00;3.10;;;;;;;12.93;100.00;91354.44;5011033;28;20030;-70
2022/06/16 03:31:58;;;;;;;6.75;3.45;;;;;;;13.00;100.00;91350.22;5010813;28;20530;-69
2022/06/16 03:34:24;;;;;;;5.47;3.80;;;;;;;12.93;100.00;91354.44;5010780;28;20512;-68
2022/06/16 03:36:51;;;;;;;4.68;3.42;;;;;;;12.90;100.00;91364.66;5010965;28;20065;-69
2022/06/16 03:39:17;;;;;;;4.75;3.72;;;;;;;12.84;100.00;91351.78;5011161;28;20042;-68
2022/06/16 03:41:42;;;;;;;5.68;3.75;;;;;;;12.97;100.00;91361.56;5010895;28;20505;-68
2022/06/16 03:44:08;;;;;;;5.13;3.42;;;;;;;13.09;100.00;91347.56;5010776;28;20053;-68
2022/06/16 03:46:34;;;;;;;6.20;3.67;;;;;;;13.09;100.00;91356.34;5010839;28;20041;-69
2022/06/16 03:49:04;;;;;;;7.95;5.28;;;;;;;13.01;100.00;91359.81;5010355;28;20109;-71
2022/06/16 03:51:30;;;;;;;6.45;4.78;;;;;;;13.02;100.00;91361.38;4992959;28;20474;-69
2022/06/16 03:53:56;;;;;;;10.60;6.55;;;;;;;13.06;100.00;91356.19;5010713;28;20064;-69
2022/06/16 03:56:21;;;;;;;11.77;6.53;;;;;;;13.01;100.00;91353.69;5010630;28;20463;-69
2022/06/16 03:58:51;;;;;;;16.48;9.05;;;;;;;13.03;100.00;91356.84;5010717;28;20080;-70
2022/06/16 04:01:16;;;;;;;22.15;11.43;;;;;;;13.06;100.00;91356.19;4992979;28;20034;-71
2022/06/16 04:04:00;;;;;;;19.02;10.38;;;;;;;13.07;100.00;91361.22;5010711;28;20393;-70
2022/06/16 04:06:26;;;;;;;;;;;;;;;13.41;100.00;91363.19;5010884;28;20114;-70
2022/06/16 04:08:52;;;;;;;17.95;11.35;;;;;;;13.34;100.00;91368.22;5006449;28;20008;-70
2022/06/16 04:11:27;;;;;;;15.70;9.77;;;;;;;13.28;100.00;91358.78;4990909;28;20034;-69
2022/06/16 04:14:07;;;;;;;15.65;10.23;;;;;;;13.39;100.00;91360.03;4989707;28;20468;-69
2022/06/16 04:16:36;;;;;;;13.85;9.63;;;;;;;13.74;100.00;91365.38;4993074;28;20023;-69
2022/06/16 04:19:03;;;;;;;14.45;8.07;;;;;;;14.05;100.00;91359.81;4994476;28;20397;-70
2022/06/16 04:21:29;;;;;;;12.68;8.05;;;;;;;14.27;100.00;91362.25;4994467;28;20508;-70
2022/06/16 04:23:55;;;;;;;9.10;5.70;;;;;;;14.56;100.00;91347.38;4994397;28;20088;-70
2022/06/16 04:26:21;;;;;;;9.52;5.35;;;;;;;14.75;100.00;91349.66;4994383;28;20034;-70
2022/06/16 04:28:46;;;;;;;9.13;4.53;;;;;;;14.67;100.00;91357.41;4994354;28;20181;-70
2022/06/16 04:31:13;;;;;;;6.43;4.78;;;;;;;14.64;100.00;91349.22;4994214;28;20485;-70
2022/06/16 04:33:39;;;;;;;9.48;5.07;;;;;;;14.87;100.00;91358.56;4994152;28;20031;-70
2022/06/16 04:36:05;;;;;;;7.53;5.82;;;;;;;14.87;100.00;91358.56;4994449;28;20038;-70
2022/06/16 04:38:31;;;;;;;8.43;5.82;;;;;;;14.94;100.00;91347.34;4994176;28;20026;-70
2022/06/16 04:40:58;;;;;;;9.45;5.68;;;;;;;15.06;100.00;91360.03;4994219;28;20033;-70
2022/06/16 04:43:25;;;;;;;10.25;6.45;;;;;;;15.10;100.00;91363.63;4994079;28;20516;-70
2022/06/16 04:45:50;;;;;;;15.98;7.97;;;;;;;15.07;100.00;91357.03;4994523;28;20041;-70
2022/06/16 04:48:16;;;;;;;13.43;8.80;;;;;;;14.96;100.00;91366.53;4995280;28;20113;-70
2022/06/16 04:50:42;;;;;;;13.10;8.88;;;;;;;14.92;100.00;91366.41;4995206;28;20037;-70
2022/06/16 04:53:07;;;;;;;12.77;8.48;;;;;;;15.07;100.00;91357.03;4994596;28;20025;-70
2022/06/16 04:55:34;;;;;;;13.80;8.80;;;;;;;15.17;100.00;91355.88;4993960;28;20034;-71
2022/06/16 04:58:04;;;;;;;10.90;9.27;;;;;;;15.07;100.00;91356.25;4994040;28;20080;-71
2022/06/16 05:00:30;;;;;;;12.48;9.02;;;;;;;15.09;100.00;91362.84;4994000;28;20065;-71
2022/06/16 05:02:56;;;;;;;13.20;8.90;;;;;;;15.23;100.00;91365.28;4993670;28;20026;-71
2022/06/16 05:05:21;;;;;;;15.07;9.68;;;;;;;15.32;100.00;91359.88;4993545;28;20034;-70
2022/06/16 05:07:47;;;;;;;18.48;9.88;;;;;;;15.38;100.00;91358.56;4993589;28;20193;-70
2022/06/16 05:10:12;;;;;;;18.52;10.48;;;;;;;15.63;100.00;91362.19;4993357;28;20050;-70
2022/06/16 05:12:38;;;;;;;18.73;11.40;;;;;;;15.90;100.00;91345.53;4993383;28;20480;-70
2022/06/16 05:15:05;;;;;;;18.02;9.82;;;;;;;15.89;100.00;91354.69;4993455;28;20053;-70
2022/06/16 05:17:30;;;;;;;14.38;9.82;;;;;;;15.90;100.00;91360.84;4993286;28;20105;-70
2022/06/16 05:19:55;;;;;;;15.85;9.77;;;;;;;16.10;100.00;91363.50;4993303;28;20608;-70
2022/06/16 05:22:22;;;;;;;20.55;10.50;;;;;;;16.36;100.00;91360.53;4993172;28;20468;-71
2022/06/16 05:24:47;;;;;;;18.02;9.95;;;;;;;16.53;100.00;91364.13;4993107;28;20034;-71
2022/06/16 05:27:13;;;;;;;21.30;8.68;;;;;;;17.45;100.00;91353.59;4992204;28;20037;-71
2022/06/16 05:29:38;;;;;;;21.83;8.18;;;;;;;17.82;100.00;91356.22;4993465;28;20033;-70
2022/06/16 05:32:04;;;;;;;14.43;7.15;;;;;;;18.05;100.00;91359.94;4993005;28;20049;-70
2022/06/16 05:34:30;;;;;;;15.75;8.32;;;;;;;17.74;100.00;91359.84;4992917;28;20035;-70
2022/06/16 05:36:56;;;;;;;16.40;8.52;;;;;;;17.41;100.00;91374.25;4993017;28;20041;-71
2022/06/16 05:39:21;;;;;;;13.40;7.32;;;;;;;17.67;100.00;91365.75;4993005;28;20566;-70
2022/06/16 05:41:47;;;;;;;13.40;6.97;;;;;;;17.89;100.00;91377.97;4992947;28;20492;-72
2022/06/16 05:44:12;;;;;;;13.23;7.97;;;;;;;17.65;100.00;91368.78;4992655;28;20038;-70
2022/06/16 05:46:40;;;;;;;18.48;9.30;;;;;;;17.58;100.00;91373.19;4992855;28;20137;-71
2022/06/16 05:49:06;;;;;;;15.63;8.30;;;;;;;17.32;100.00;91370.88;4992709;28;20393;-70
2022/06/16 05:51:32;;;;;;;15.40;8.43;;;;;;;17.00;100.00;91372.59;4992604;28;20022;-70
2022/06/16 05:53:57;;;;;;;16.25;8.20;;;;;;;17.24;100.00;91369.13;4975053;28;20077;-69
2022/06/16 05:56:23;;;;;;;15.55;9.02;;;;;;;17.41;100.00;91379.63;4992639;28;20054;-70
2022/06/16 05:58:48;;;;;;;22.00;10.77;;;;;;;17.46;100.00;91376.69;4992671;28;20121;-70
2022/06/16 06:01:15;;;;;;;15.50;8.88;;;;;;;17.57;100.00;91385.88;4992707;28;20046;-70
2022/06/16 06:03:42;;;;;;;17.38;10.20;;;;;;;17.09;100.00;91375.16;4992411;28;20026;-70
2022/06/16 06:06:08;;;;;;;18.80;9.82;;;;;;;16.99;100.00;91379.09;4992447;28;20023;-71
2022/06/16 06:17:05;;;;;;;18.88;9.93;;;;;;;17.76;100.00;91385.28;4992251;28;20110;-69
2022/06/16 06:19:31;;;;;;;20.77;9.48;;;;;;;17.84;100.00;91387.06;4992234;28;20026;-70
2022/06/16 06:22:13;;;;;;;23.23;9.88;;;;;;;17.77;100.00;91392.22;4992390;28;20036;-68
2022/06/16 06:24:50;;;;;;;17.42;9.55;;;;;;;18.16;100.00;91393.34;4991983;28;20449;-69
2022/06/16 06:27:20;;;;;;;19.20;9.40;;;;;;;18.30;100.00;91384.06;4992111;28;20030;-69
2022/06/16 06:29:48;;;;;;;17.63;9.40;;;;;;;18.39;100.00;91387.41;4992080;28;20023;-68
2022/06/16 06:32:15;;;;;;;17.15;8.77;;;;;;;18.11;100.00;91398.97;4992066;28;20105;-69
2022/06/16 06:34:41;;;;;;;17.63;9.57;;;;;;;18.09;100.00;91395.03;4991941;28;20484;-69
2022/06/16 06:37:08;;;;;;;17.58;9.25;;;;;;;18.49;100.00;91389.59;4991948;28;20040;-69
2022/06/16 06:39:34;;;;;;;20.33;9.95;;;;;;;18.39;100.00;91392.78;4991776;28;20122;-69
2022/06/16 06:42:01;;;;;;;15.15;8.27;;;;;;;18.34;100.00;91399.22;4991942;28;20073;-69
2022/06/16 06:44:26;;;;;;;17.77;9.85;;;;;;;18.72;100.00;91398.69;4991647;28;20117;-69
2022/06/16 06:46:52;;;;;;;18.52;9.52;;;;;;;19.08;100.00;91394.94;4991836;28;20105;-69
2022/06/16 06:49:19;;;;;;;17.55;9.25;;;;;;;19.12;100.00;91395.06;4991782;28;20026;-68
2022/06/16 06:51:45;;;;;;;17.27;9.57;;;;;;;19.09;100.00;91396.53;4991653;28;20034;-68
2022/06/16 06:54:10;;;;;;;16.80;8.52;;;;;;;19.97;100.00;91388.88;4991599;28;20085;-68
2022/06/16 06:56:35;;;;;;;19.15;10.23;;;;;;;20.56;100.00;91384.28;4991689;28;20532;-69
2022/06/16 06:59:06;;;;;;;14.32;7.97;;;;;;;20.79;99.91;91381.56;4991717;28;20527;-68
2022/06/16 07:01:32;;;;;;;13.50;7.63;;;;;;;21.12;93.58;91394.50;4991539;28;20042;-68
2022/06/16 07:03:57;;;;;;;15.00;8.15;;;;;;;21.69;90.63;91388.09;4987989;28;20045;-68
2022/06/16 07:06:23;;;;;;;16.65;9.07;;;;;;;22.32;84.27;91392.81;4991341;28;20058;-69
2022/06/16 07:08:48;;;;;;;13.68;7.95;;;;;;;21.72;81.79;91389.28;4991099;28;20452;-68
2022/06/16 07:11:15;;;;;;;16.15;8.77;;;;;;;22.17;82.57;91387.59;4991155;28;20038;-69
2022/06/16 07:13:41;;;;;;;12.13;8.25;;;;;;;22.47;80.88;91382.91;5005969;28;20023;-69
2022/06/16 07:16:08;;;;;;;13.30;7.85;;;;;;;22.49;79.80;91386.03;4991163;28;20038;-68
2022/06/16 07:18:34;;;;;;;18.05;9.15;;;;;;;22.41;80.53;91390.59;4991194;28;20030;-68
2022/06/16 07:20:59;;;;;;;16.23;9.00;;;;;;;23.51;72.46;91384.69;4991264;28;20034;-68
2022/06/16 07:23:26;;;;;;;13.32;8.95;;;;;;;23.64;72.51;91390.63;4991170;28;20029;-68
2022/06/16 07:25:53;;;;;;;15.30;8.93;;;;;;;23.37;68.48;91390.81;4991312;28;20484;-68
2022/06/16 07:28:19;;;;;;;15.90;8.73;;;;;;;22.84;69.04;91393.00;4990919;28;20109;-68
2022/06/16 07:30:45;;;;;;;11.50;7.63;;;;;;;22.89;69.93;91379.91;4991164;28;20040;-68
2022/06/16 07:33:12;;;;;;;13.13;8.10;;;;;;;22.86;72.19;91386.06;4991097;28;20019;-68
2022/06/16 07:35:43;;;;;;;12.43;8.00;;;;;;;27.69;62.13;91398.03;4991043;28;20077;-69
2022/06/16 07:38:11;;;;;;;10.77;6.95;;;;;;;28.27;51.13;91390.91;4991177;28;20114;-68
2022/06/16 07:40:37;;;;;;;10.18;7.43;;;;;;;29.11;50.05;91395.78;4991250;28;20105;-69
2022/06/16 07:43:03;;;;;;;11.25;7.38;;;;;;;30.34;47.98;91394.31;4990625;28;20027;-69
2022/06/16 07:45:29;;;;;;;13.48;7.40;;;;;;;31.92;43.27;91392.63;4991028;28;20037;-70
2022/06/16 07:47:57;;;;;;;11.77;8.10;;;;;;;28.50;49.00;91390.25;4991037;28;20061;-69
2022/06/16 07:50:24;;;;;;;10.30;7.53;;;;;;;26.74;52.42;91394.66;4991523;28;20412;-69
2022/06/16 07:52:49;;;;;;;14.55;8.00;;;;;;;27.96;54.16;91395.47;5010148;28;20480;-68
2022/06/16 07:55:17;;;;;;;11.38;7.22;;;;;;;31.28;46.35;91390.13;4994801;28;20045;-69
2022/06/16 07:57:45;;;;;;;10.40;7.10;;;;;;;33.94;41.56;91395.34;4994663;28;20073;-69
2022/06/16 08:00:13;;;;;;;10.75;6.57;;;;;;;33.45;39.54;91394.84;4995038;28;20053;-67
2022/06/16 08:02:39;;;;;;;10.60;6.85;;;;;;;32.95;40.75;91396.28;4994721;28;20038;-68
2022/06/16 08:05:06;;;;;;;8.68;6.78;;;;;;;31.55;42.27;91397.38;4994650;28;20038;-70
2022/06/16 08:07:32;;;;;;;12.57;7.07;;;;;;;30.98;42.86;91393.88;4994629;28;20085;-70
2022/06/16 08:09:58;;;;;;;10.35;6.72;;;;;;;32.31;41.31;91395.22;4994509;28;20082;-70
2022/06/16 08:12:24;;;;;;;8.00;6.20;;;;;;;34.14;38.37;91402.59;4994121;28;20065;-70
2022/06/16 08:14:50;;;;;;;9.27;6.50;;;;;;;35.62;36.84;91397.84;4994483;28;20085;-68
2022/06/16 08:17:24;;;;;;;7.13;5.75;;;;;;;36.95;34.69;91403.19;4994735;28;20026;-73
2022/06/16 08:19:51;;;;;;;7.65;5.32;;;;;;;35.31;35.23;91395.78;4994565;28;20069;-71
2022/06/16 08:22:17;;;;;;;7.68;5.80;;;;;;;35.38;35.78;91398.34;4994350;28;20457;-70
2022/06/16 08:24:42;;;;;;;9.02;6.45;;;;;;;35.07;35.24;91391.97;4994259;28;20031;-71
2022/06/16 08:27:09;;;;;;;8.20;5.45;;;;;;;31.77;39.26;91403.97;4994077;28;20029;-69
2022/06/16 08:29:36;;;;;;;13.95;8.15;;;;;;;28.43;46.08;91387.59;4994577;28;20512;-69
2022/06/16 08:32:02;;;;;;;10.60;6.97;;;;;;;26.97;49.81;91399.63;4994169;28;20453;-70
2022/06/16 08:34:27;;;;;;;10.85;6.63;;;;;;;26.05;53.21;91392.53;4994150;28;20497;-70
2022/06/16 08:36:53;;;;;;;9.95;6.65;;;;;;;27.85;50.73;91394.78;4994059;28;20078;-71
2022/06/16 08:39:18;;;;;;;10.35;6.50;;;;;;;30.05;45.15;91380.31;4994081;28;20161;-71
2022/06/16 08:41:57;;;;;;;8.85;6.30;;;;;;;32.83;41.24;91391.50;4993685;28;20080;-69
2022/06/16 08:44:33;;;;;;;7.72;6.13;;;;;;;35.27;38.21;91397.91;4993934;28;20034;-70
2022/06/16 08:47:20;;;;;;;7.93;6.40;;;;;;;35.30;37.58;91396.25;4994018;28;20026;-71
2022/06/16 08:49:58;;;;;;;8.27;5.47;;;;;;;36.97;35.58;91403.47;4993881;28;20042;-73
2022/06/16 08:53:03;;;;;;;8.52;6.25;;;;;;;34.96;35.03;91397.88;4993785;28;20030;-73
2022/06/16 08:55:43;;;;;;;8.18;5.13;;;;;;;33.47;37.59;91391.69;4993385;28;20089;-74
2022/06/16 08:58:33;;;;;;;9.02;5.72;;;;;;;33.93;37.81;91393.81;4993784;28;20023;-73
2022/06/16 09:01:07;;;;;;;6.18;4.97;;;;;;;34.20;37.37;91389.75;4993758;28;20026;-71
2022/06/16 09:04:09;;;;;;;7.32;5.68;;;;;;;33.54;38.94;91394.19;4992302;28;20026;-70
2022/06/16 09:07:01;;;;;;;8.90;6.15;;;;;;;29.93;43.49;91387.13;4992907;28;20046;-76
2022/06/16 09:12:49;;;;;;;;;;;;;;;24.82;54.31;91387.38;5013255;28;20037;-73
2022/06/16 09:15:38;;;;;;;10.57;6.07;;;;;;;25.38;54.09;91375.78;4942697;28;19919;-74
2022/06/16 09:18:25;;;;;;;11.73;6.45;;;;;;;29.14;49.88;91376.56;5012841;28;20452;-71
2022/06/16 09:21:10;;;;;;;10.35;5.82;;;;;;;31.19;45.17;91375.41;5012927;28;20029;-70
2022/06/16 09:23:48;;;;;;;7.18;4.70;;;;;;;33.60;41.34;91365.59;5012789;28;20495;-71
2022/06/16 09:26:47;;;;;;;5.88;4.80;;;;;;;35.48;36.68;91367.94;5012344;28;20033;-71
2022/06/16 09:29:29;;;;;;;7.35;5.80;;;;;;;33.65;37.95;91373.34;5012833;28;20034;-71
2022/06/16 09:32:04;;;;;;;7.93;4.90;;;;;;;30.91;41.91;91366.53;5012654;28;20034;-73
2022/06/16 09:34:41;;;;;;;7.07;5.45;;;;;;;30.80;42.18;91359.72;5012583;28;20034;-70
2022/06/16 09:37:15;;;;;;;6.15;4.90;;;;;;;31.42;41.20;91360.78;5012606;28;20025;-70
2022/06/16 09:39:48;;;;;;;7.85;6.03;;;;;;;33.75;39.03;91367.94;5012645;28;20483;-72
2022/06/16 09:42:33;;;;;;;;;;;;;;;35.35;37.74;91368.00;5012802;28;20144;-74
2022/06/16 09:45:08;;;;;;;7.93;5.32;;;;;;;36.84;36.46;91380.66;5012624;28;20402;-73
2022/06/16 09:47:44;;;;;;;6.28;5.00;;;;;;;35.43;33.98;91369.28;5012509;28;20042;-69
2022/06/16 09:50:25;;;;;;;7.05;5.35;;;;;;;36.30;36.46;91362.72;5012345;28;20065;-74
2022/06/16 09:53:14;;;;;;;7.97;5.07;;;;;;;36.17;35.38;91359.31;5012129;28;20055;-74
2022/06/16 09:55:45;;;;;;;7.07;5.78;;;;;;;33.69;37.42;91353.91;4981351;28;20049;-73
2022/06/16 09:58:35;;;;;;;7.65;5.88;;;;;;;34.89;35.75;91358.66;5012244;28;20500;-73
2022/06/16 10:01:07;;;;;;;7.93;4.82;;;;;;;35.33;35.47;91354.59;5012232;28;20029;-78
2022/06/16 10:04:07;;;;;;;6.95;4.90;;;;;;;36.49;33.02;91360.75;5012321;28;20113;-79
2022/06/16 10:06:57;;;;;;;6.90;4.97;;;;;;;35.98;34.15;91358.50;4994917;28;20412;-78
2022/06/16 10:09:32;;;;;;;7.07;5.47;;;;;;;36.58;36.00;91350.44;5004236;28;20050;-74
2022/06/16 10:12:05;;;;;;;9.27;5.97;;;;;;;33.97;37.28;91344.00;4991937;28;20030;-74
2022/06/16 10:14:46;;;;;;;7.80;5.20;;;;;;;33.04;39.90;91343.25;4991858;28;20053;-76
2022/06/16 10:17:16;;;;;;;6.78;5.25;;;;;;;34.90;35.79;91338.84;4992267;28;20041;-74
2022/06/16 10:19:44;;;;;;;7.75;5.03;;;;;;;34.16;37.49;91342.94;4992810;28;20042;-72
2022/06/16 10:22:17;;;;;;;6.30;5.20;;;;;;;35.28;34.91;91352.44;4992574;28;20030;-75
2022/06/16 10:25:00;;;;;;;8.63;6.13;;;;;;;35.51;37.35;91353.97;4991738;28;20045;-74
2022/06/16 10:27:43;;;;;;;7.88;6.13;;;;;;;37.26;34.19;91349.50;4992081;28;20026;-73
2022/06/16 10:30:18;;;;;;;6.30;5.00;;;;;;;37.23;33.51;91353.19;4992147;28;20092;-73
2022/06/16 10:32:47;;;;;;;7.18;5.57;;;;;;;38.03;33.70;91336.78;4991793;28;20041;-73
2022/06/16 10:35:19;;;;;;;6.63;5.13;;;;;;;39.64;31.16;91345.28;4992011;28;20057;-73
2022/06/16 10:37:48;;;;;;;8.82;5.13;;;;;;;37.42;31.48;91344.41;4992062;28;20232;-73
2022/06/16 10:40:18;;;;;;;6.00;4.75;;;;;;;36.24;33.75;91336.81;4991602;28;20030;-73
2022/06/16 10:42:47;;;;;;;8.20;6.15;;;;;;;33.58;36.64;91337.69;4991756;28;20499;-73
2022/06/16 10:45:21;;;;;;;7.22;5.00;;;;;;;33.96;36.00;91338.91;4991839;28;20058;-74
2022/06/16 10:48:11;;;;;;;8.05;5.75;;;;;;;31.28;41.22;91335.16;4991761;28;20026;-75
2022/06/16 10:50:47;;;;;;;8.07;5.00;;;;;;;28.39;43.34;91326.63;4991625;28;20038;-74
2022/06/16 10:53:18;;;;;;;7.82;5.13;;;;;;;29.05;42.06;91310.56;4991549;28;20022;-75
2022/06/16 10:55:46;;;;;;;7.45;5.20;;;;;;;31.93;38.79;91317.91;4991405;28;20118;-76
2022/06/16 10:58:16;;;;;;;8.02;4.88;;;;;;;33.65;34.95;91314.63;5006785;28;20030;-76
2022/06/16 11:00:42;;;;;;;6.97;4.65;;;;;;;33.67;35.61;91306.69;4991504;28;20058;-75
2022/06/16 11:03:10;;;;;;;5.93;5.03;;;;;;;34.25;36.41;91314.66;4991687;28;20050;-73
2022/06/16 11:05:47;;;;;;;6.80;4.57;;;;;;;33.75;34.95;91313.50;5006849;28;20038;-74
2022/06/16 11:08:14;;;;;;;7.78;5.60;;;;;;;33.92;36.78;91311.41;4991726;28;20109;-74
2022/06/16 11:10:49;;;;;;;7.45;5.07;;;;;;;33.20;35.13;91312.06;4991590;28;20046;-74
2022/06/16 11:13:19;;;;;;;6.88;4.97;;;;;;;32.51;36.80;91306.97;4991582;28;20042;-75
2022/06/16 11:15:50;;;;;;;6.50;5.10;;;;;;;30.24;40.33;91315.66;4991720;28;20045;-74
2022/06/16 11:18:20;;;;;;;12.88;5.45;;;;;;;30.65;41.36;91310.56;4991679;28;20105;-74
2022/06/16 11:20:50;;;;;;;6.82;5.50;;;;;;;31.57;38.98;91299.50;4991546;28;20058;-73
2022/06/16 11:23:27;;;;;;;10.30;6.22;;;;;;;30.79;40.38;91303.25;4991476;28;20042;-74
2022/06/16 11:26:09;;;;;;;10.18;5.72;;;;;;;28.57;43.22;91310.81;4992873;28;20037;-73
2022/06/16 11:28:48;;;;;;;6.53;5.27;;;;;;;27.61;45.03;91296.13;4995675;28;20468;-73
2022/06/16 11:31:23;;;;;;;8.85;6.20;;;;;;;28.01;46.09;91304.75;4995615;28;20269;-73
2022/06/16 11:34:14;;;;;;;11.90;7.22;;;;;;;27.74;45.84;91308.16;4995473;28;20034;-73
2022/06/16 11:37:04;;;;;;;8.93;5.90;;;;;;;28.54;44.31;91303.38;4995525;28;20036;-73
2022/06/16 11:39:51;;;;;;;8.18;6.25;;;;;;;30.05;44.71;91301.50;4995500;28;20412;-73
2022/06/16 11:42:35;;;;;;;7.72;5.70;;;;;;;30.39;41.33;91303.22;4995655;28;20034;-73
2022/06/16 11:45:33;;;;;;;8.57;5.72;;;;;;;30.91;41.58;91299.81;4995361;28;20511;-73
2022/06/16 11:48:17;;;;;;;9.38;5.95;;;;;;;32.44;41.80;91294.13;4973117;28;20393;-72
2022/06/16 11:50:54;;;;;;;8.27;5.68;;;;;;;32.17;40.69;91288.94;4995144;28;20027;-73
2022/06/16 11:53:48;;;;;;;9.65;6.38;;;;;;;31.01;40.61;91296.06;4995069;28;20122;-72
2022/06/16 11:56:18;;;;;;;;;;;;;;;29.36;43.72;91294.81;4995394;28;20500;-73
2022/06/16 11:59:05;;;;;;;8.98;6.07;;;;;;;27.28;46.52;91300.34;4994941;28;19945;-73
2022/06/16 12:01:40;;;;;;;8.30;5.78;;;;;;;26.18;49.10;91296.25;4994957;28;20109;-73
2022/06/16 12:04:32;;;;;;;10.43;6.78;;;;;;;26.51;49.84;91297.72;4994886;28;20511;-73
2022/06/16 12:07:19;;;;;;;9.40;6.78;;;;;;;26.37;49.72;91289.59;4964809;28;20041;-72